sensor_id;sensor_type;location;lat;lon;timestamp;P1;durP1;ratioP1;P2;durP2;ratioP2
73557;SDS011;61829;53.286;10.434;2023-01-31T00:01:24;13.82;;;1.88;;
73557;SDS011;61829;53.286;10.434;2023-01-31T00:03:52;4.78;;;1.08;;
73557;SDS011;61829;53.286;10.434;2023-01-31T00:06:23;9.65;;;1.77;;
73557;SDS011;61829;53.286;10.434;2023-01-31T00:08:55;6.93;;;1.20;;
73557;SDS011;61829;53.286;10.434;2023-01-31T00:13:49;11.40;;;1.85;;
73557;SDS011;61829;53.286;10.434;2023-01-31T00:16:16;13.15;;;1.55;;
73557;SDS011;61829;53.286;10.434;2023-01-31T00:18:43;6.40;;;1.40;;
73557;SDS011;61829;53.286;10.434;2023-01-31T00:21:13;9.32;;;1.52;;
73557;SDS011;61829;53.286;10.434;2023-01-31T00:23:42;9.90;;;1.40;;
73557;SDS011;61829;53.286;10.434;2023-01-31T00:28:45;7.25;;;1.40;;
73557;SDS011;61829;53.286;10.434;2023-01-31T00:31:13;7.20;;;1.27;;
73557;SDS011;61829;53.286;10.434;2023-01-31T00:33:40;9.93;;;1.15;;
73557;SDS011;61829;53.286;10.434;2023-01-31T00:36:09;8.13;;;1.30;;
73557;SDS011;61829;53.286;10.434;2023-01-31T00:38:39;9.77;;;1.75;;
73557;SDS011;61829;53.286;10.434;2023-01-31T00:41:06;7.75;;;1.38;;
73557;SDS011;61829;53.286;10.434;2023-01-31T00:43:33;8.38;;;1.33;;
73557;SDS011;61829;53.286;10.434;2023-01-31T00:45:59;13.95;;;1.75;;
73557;SDS011;61829;53.286;10.434;2023-01-31T00:48:26;10.35;;;2.67;;
73557;SDS011;61829;53.286;10.434;2023-01-31T00:50:52;10.60;;;1.50;;
73557;SDS011;61829;53.286;10.434;2023-01-31T00:53:18;7.68;;;1.63;;
73557;SDS011;61829;53.286;10.434;2023-01-31T00:55:48;8.70;;;2.03;;
73557;SDS011;61829;53.286;10.434;2023-01-31T00:58:16;6.80;;;1.52;;
73557;SDS011;61829;53.286;10.434;2023-01-31T01:00:43;17.33;;;2.10;;
73557;SDS011;61829;53.286;10.434;2023-01-31T01:03:09;11.40;;;1.52;;
73557;SDS011;61829;53.286;10.434;2023-01-31T01:05:35;6.97;;;1.60;;
73557;SDS011;61829;53.286;10.434;2023-01-31T01:08:01;8.73;;;1.70;;
73557;SDS011;61829;53.286;10.434;2023-01-31T01:10:27;13.32;;;1.70;;
73557;SDS011;61829;53.286;10.434;2023-01-31T01:12:53;9.38;;;1.60;;
73557;SDS011;61829;53.286;10.434;2023-01-31T01:15:19;6.63;;;1.13;;
73557;SDS011;61829;53.286;10.434;2023-01-31T01:17:44;11.95;;;1.73;;
73557;SDS011;61829;53.286;10.434;2023-01-31T01:20:10;12.32;;;2.00;;
73557;SDS011;61829;53.286;10.434;2023-01-31T01:22:36;7.63;;;1.58;;
73557;SDS011;61829;53.286;10.434;2023-01-31T01:25:02;12.48;;;1.83;;
73557;SDS011;61829;53.286;10.434;2023-01-31T01:27:29;19.13;;;2.28;;
73557;SDS011;61829;53.286;10.434;2023-01-31T01:29:54;6.97;;;1.42;;
73557;SDS011;61829;53.286;10.434;2023-01-31T01:32:20;15.07;;;1.85;;
73557;SDS011;61829;53.286;10.434;2023-01-31T01:34:46;11.63;;;1.83;;
73557;SDS011;61829;53.286;10.434;2023-01-31T01:37:12;13.18;;;1.50;;
73557;SDS011;61829;53.286;10.434;2023-01-31T01:39:45;12.55;;;2.00;;
73557;SDS011;61829;53.286;10.434;2023-01-31T01:42:15;15.27;;;1.75;;
73557;SDS011;61829;53.286;10.434;2023-01-31T01:47:19;9.48;;;1.65;;
73557;SDS011;61829;53.286;10.434;2023-01-31T01:52:44;10.15;;;1.52;;
73557;SDS011;61829;53.286;10.434;2023-01-31T01:58:03;8.55;;;1.63;;
73557;SDS011;61829;53.286;10.434;2023-01-31T02:00:33;14.95;;;2.63;;
73557;SDS011;61829;53.286;10.434;2023-01-31T02:03:01;11.13;;;1.70;;
73557;SDS011;61829;53.286;10.434;2023-01-31T02:05:34;4.03;;;1.00;;
73557;SDS011;61829;53.286;10.434;2023-01-31T02:08:04;14.20;;;1.85;;
73557;SDS011;61829;53.286;10.434;2023-01-31T02:12:56;12.93;;;1.58;;
73557;SDS011;61829;53.286;10.434;2023-01-31T02:15:22;11.23;;;2.17;;
73557;SDS011;61829;53.286;10.434;2023-01-31T02:17:49;11.77;;;1.73;;
73557;SDS011;61829;53.286;10.434;2023-01-31T02:26:32;5.85;;;1.30;;
73557;SDS011;61829;53.286;10.434;2023-01-31T02:41:00;9.75;;;1.70;;
73557;SDS011;61829;53.286;10.434;2023-01-31T02:52:35;11.35;;;1.73;;
73557;SDS011;61829;53.286;10.434;2023-01-31T03:00:42;6.35;;;1.17;;
73557;SDS011;61829;53.286;10.434;2023-01-31T03:03:21;7.40;;;2.00;;
73557;SDS011;61829;53.286;10.434;2023-01-31T03:08:39;11.30;;;1.80;;
73557;SDS011;61829;53.286;10.434;2023-01-31T03:11:08;11.75;;;1.50;;
73557;SDS011;61829;53.286;10.434;2023-01-31T03:16:30;6.53;;;1.02;;
73557;SDS011;61829;53.286;10.434;2023-01-31T03:19:20;6.90;;;1.35;;
73557;SDS011;61829;53.286;10.434;2023-01-31T03:22:00;7.22;;;1.17;;
73557;SDS011;61829;53.286;10.434;2023-01-31T03:24:30;14.57;;;1.67;;
73557;SDS011;61829;53.286;10.434;2023-01-31T03:26:56;3.55;;;1.00;;
73557;SDS011;61829;53.286;10.434;2023-01-31T03:29:25;4.13;;;1.27;;
73557;SDS011;61829;53.286;10.434;2023-01-31T03:31:58;11.45;;;1.90;;
73557;SDS011;61829;53.286;10.434;2023-01-31T03:34:29;13.35;;;1.42;;
73557;SDS011;61829;53.286;10.434;2023-01-31T03:42:05;7.53;;;1.40;;
73557;SDS011;61829;53.286;10.434;2023-01-31T03:47:24;7.32;;;1.35;;
73557;SDS011;61829;53.286;10.434;2023-01-31T03:49:51;5.30;;;1.40;;
73557;SDS011;61829;53.286;10.434;2023-01-31T03:53:04;8.82;;;1.38;;
73557;SDS011;61829;53.286;10.434;2023-01-31T03:55:15;7.00;;;1.17;;
73557;SDS011;61829;53.286;10.434;2023-01-31T03:57:45;6.25;;;1.95;;
73557;SDS011;61829;53.286;10.434;2023-01-31T04:00:19;14.88;;;2.28;;
73557;SDS011;61829;53.286;10.434;2023-01-31T04:02:48;12.05;;;1.75;;
73557;SDS011;61829;53.286;10.434;2023-01-31T04:05:23;10.30;;;2.17;;
73557;SDS011;61829;53.286;10.434;2023-01-31T04:07:55;8.77;;;1.80;;
73557;SDS011;61829;53.286;10.434;2023-01-31T04:12:48;8.82;;;1.52;;
73557;SDS011;61829;53.286;10.434;2023-01-31T04:15:14;10.48;;;1.65;;
73557;SDS011;61829;53.286;10.434;2023-01-31T04:17:40;12.70;;;1.70;;
73557;SDS011;61829;53.286;10.434;2023-01-31T04:20:06;8.50;;;1.60;;
73557;SDS011;61829;53.286;10.434;2023-01-31T04:22:33;12.32;;;1.60;;
73557;SDS011;61829;53.286;10.434;2023-01-31T04:24:59;7.38;;;1.38;;
73557;SDS011;61829;53.286;10.434;2023-01-31T04:27:26;16.52;;;2.05;;
73557;SDS011;61829;53.286;10.434;2023-01-31T04:29:52;7.45;;;1.35;;
73557;SDS011;61829;53.286;10.434;2023-01-31T04:32:17;15.70;;;1.67;;
73557;SDS011;61829;53.286;10.434;2023-01-31T04:34:44;13.13;;;1.63;;
73557;SDS011;61829;53.286;10.434;2023-01-31T04:37:09;14.00;;;2.22;;
73557;SDS011;61829;53.286;10.434;2023-01-31T04:39:35;13.10;;;2.42;;
73557;SDS011;61829;53.286;10.434;2023-01-31T04:42:01;12.32;;;2.03;;
73557;SDS011;61829;53.286;10.434;2023-01-31T04:44:27;12.90;;;1.70;;
73557;SDS011;61829;53.286;10.434;2023-01-31T04:46:53;7.10;;;1.70;;
73557;SDS011;61829;53.286;10.434;2023-01-31T04:49:21;9.57;;;1.73;;
73557;SDS011;61829;53.286;10.434;2023-01-31T04:51:46;7.03;;;1.50;;
73557;SDS011;61829;53.286;10.434;2023-01-31T04:54:12;9.27;;;1.55;;
73557;SDS011;61829;53.286;10.434;2023-01-31T04:56:38;10.45;;;1.10;;
73557;SDS011;61829;53.286;10.434;2023-01-31T04:59:04;11.10;;;1.20;;
73557;SDS011;61829;53.286;10.434;2023-01-31T05:01:29;11.27;;;1.55;;
73557;SDS011;61829;53.286;10.434;2023-01-31T05:03:56;7.63;;;1.42;;
73557;SDS011;61829;53.286;10.434;2023-01-31T05:06:24;9.10;;;1.70;;
73557;SDS011;61829;53.286;10.434;2023-01-31T05:08:50;8.32;;;1.42;;
73557;SDS011;61829;53.286;10.434;2023-01-31T05:11:19;12.00;;;2.00;;
73557;SDS011;61829;53.286;10.434;2023-01-31T05:13:45;10.10;;;1.65;;
73557;SDS011;61829;53.286;10.434;2023-01-31T05:16:12;7.25;;;1.38;;
73557;SDS011;61829;53.286;10.434;2023-01-31T05:18:38;9.43;;;1.27;;
73557;SDS011;61829;53.286;10.434;2023-01-31T05:21:04;6.68;;;1.33;;
73557;SDS011;61829;53.286;10.434;2023-01-31T05:23:32;6.35;;;1.55;;
73557;SDS011;61829;53.286;10.434;2023-01-31T05:25:58;8.68;;;1.10;;
73557;SDS011;61829;53.286;10.434;2023-01-31T05:28:24;8.10;;;1.42;;
73557;SDS011;61829;53.286;10.434;2023-01-31T05:30:54;11.65;;;1.60;;
73557;SDS011;61829;53.286;10.434;2023-01-31T05:33:27;9.82;;;1.45;;
73557;SDS011;61829;53.286;10.434;2023-01-31T05:35:53;8.75;;;2.03;;
73557;SDS011;61829;53.286;10.434;2023-01-31T05:38:19;13.35;;;1.83;;
73557;SDS011;61829;53.286;10.434;2023-01-31T05:40:45;12.77;;;1.65;;
73557;SDS011;61829;53.286;10.434;2023-01-31T05:43:12;6.47;;;1.63;;
73557;SDS011;61829;53.286;10.434;2023-01-31T05:45:37;5.85;;;1.40;;
73557;SDS011;61829;53.286;10.434;2023-01-31T05:48:03;9.75;;;2.47;;
73557;SDS011;61829;53.286;10.434;2023-01-31T05:50:29;10.95;;;2.45;;
73557;SDS011;61829;53.286;10.434;2023-01-31T05:52:56;10.13;;;1.58;;
73557;SDS011;61829;53.286;10.434;2023-01-31T05:55:29;10.15;;;1.60;;
73557;SDS011;61829;53.286;10.434;2023-01-31T05:57:56;14.70;;;2.10;;
73557;SDS011;61829;53.286;10.434;2023-01-31T06:00:22;13.45;;;1.83;;
73557;SDS011;61829;53.286;10.434;2023-01-31T06:02:49;12.48;;;2.20;;
73557;SDS011;61829;53.286;10.434;2023-01-31T06:05:15;13.88;;;2.28;;
73557;SDS011;61829;53.286;10.434;2023-01-31T06:07:41;15.73;;;1.77;;
73557;SDS011;61829;53.286;10.434;2023-01-31T06:10:08;12.20;;;2.33;;
73557;SDS011;61829;53.286;10.434;2023-01-31T06:12:35;13.65;;;1.95;;
73557;SDS011;61829;53.286;10.434;2023-01-31T06:15:03;14.13;;;2.05;;
73557;SDS011;61829;53.286;10.434;2023-01-31T06:17:29;11.88;;;1.60;;
73557;SDS011;61829;53.286;10.434;2023-01-31T06:19:55;18.40;;;2.35;;
73557;SDS011;61829;53.286;10.434;2023-01-31T06:22:21;14.77;;;1.95;;
73557;SDS011;61829;53.286;10.434;2023-01-31T06:24:46;10.73;;;1.60;;
73557;SDS011;61829;53.286;10.434;2023-01-31T06:27:12;11.65;;;2.30;;
73557;SDS011;61829;53.286;10.434;2023-01-31T06:29:38;8.02;;;2.25;;
73557;SDS011;61829;53.286;10.434;2023-01-31T06:32:04;11.43;;;2.30;;
73557;SDS011;61829;53.286;10.434;2023-01-31T06:34:30;17.83;;;2.00;;
73557;SDS011;61829;53.286;10.434;2023-01-31T06:36:56;11.23;;;2.35;;
73557;SDS011;61829;53.286;10.434;2023-01-31T06:39:25;13.30;;;2.00;;
73557;SDS011;61829;53.286;10.434;2023-01-31T06:41:51;14.23;;;2.00;;
73557;SDS011;61829;53.286;10.434;2023-01-31T06:44:17;15.25;;;2.67;;
73557;SDS011;61829;53.286;10.434;2023-01-31T06:46:43;9.75;;;2.08;;
73557;SDS011;61829;53.286;10.434;2023-01-31T06:49:09;18.38;;;2.67;;
73557;SDS011;61829;53.286;10.434;2023-01-31T06:51:35;13.95;;;2.28;;
73557;SDS011;61829;53.286;10.434;2023-01-31T06:54:00;14.00;;;2.40;;
73557;SDS011;61829;53.286;10.434;2023-01-31T06:56:27;10.82;;;2.40;;
73557;SDS011;61829;53.286;10.434;2023-01-31T06:58:52;16.85;;;2.47;;
73557;SDS011;61829;53.286;10.434;2023-01-31T07:01:21;12.77;;;1.85;;
73557;SDS011;61829;53.286;10.434;2023-01-31T07:03:48;9.25;;;2.08;;
73557;SDS011;61829;53.286;10.434;2023-01-31T07:06:14;10.43;;;2.22;;
73557;SDS011;61829;53.286;10.434;2023-01-31T07:08:44;9.98;;;2.22;;
73557;SDS011;61829;53.286;10.434;2023-01-31T07:11:10;12.88;;;2.42;;
73557;SDS011;61829;53.286;10.434;2023-01-31T07:13:36;10.32;;;2.50;;
73557;SDS011;61829;53.286;10.434;2023-01-31T07:16:02;14.63;;;2.13;;
73557;SDS011;61829;53.286;10.434;2023-01-31T07:18:28;10.02;;;2.58;;
73557;SDS011;61829;53.286;10.434;2023-01-31T07:20:54;14.75;;;2.70;;
73557;SDS011;61829;53.286;10.434;2023-01-31T07:23:20;11.45;;;2.08;;
73557;SDS011;61829;53.286;10.434;2023-01-31T07:25:46;9.07;;;1.75;;
73557;SDS011;61829;53.286;10.434;2023-01-31T07:28:11;11.88;;;2.03;;
73557;SDS011;61829;53.286;10.434;2023-01-31T07:30:37;14.82;;;2.67;;
73557;SDS011;61829;53.286;10.434;2023-01-31T07:33:04;10.85;;;2.22;;
73557;SDS011;61829;53.286;10.434;2023-01-31T07:35:30;13.32;;;2.22;;
73557;SDS011;61829;53.286;10.434;2023-01-31T07:37:58;10.88;;;2.38;;
73557;SDS011;61829;53.286;10.434;2023-01-31T07:40:24;16.02;;;2.50;;
73557;SDS011;61829;53.286;10.434;2023-01-31T07:42:50;10.07;;;2.03;;
73557;SDS011;61829;53.286;10.434;2023-01-31T07:45:16;4.85;;;2.05;;
73557;SDS011;61829;53.286;10.434;2023-01-31T07:47:42;8.48;;;2.03;;
73557;SDS011;61829;53.286;10.434;2023-01-31T07:50:08;11.77;;;2.63;;
73557;SDS011;61829;53.286;10.434;2023-01-31T07:52:34;9.35;;;2.20;;
73557;SDS011;61829;53.286;10.434;2023-01-31T07:55:00;11.73;;;2.28;;
73557;SDS011;61829;53.286;10.434;2023-01-31T07:57:26;10.63;;;2.67;;
73557;SDS011;61829;53.286;10.434;2023-01-31T07:59:55;12.93;;;2.70;;
73557;SDS011;61829;53.286;10.434;2023-01-31T08:02:20;13.73;;;2.78;;
73557;SDS011;61829;53.286;10.434;2023-01-31T08:05:05;13.60;;;3.40;;
73557;SDS011;61829;53.286;10.434;2023-01-31T08:09:58;10.27;;;2.90;;
73557;SDS011;61829;53.286;10.434;2023-01-31T08:12:24;9.07;;;3.50;;
73557;SDS011;61829;53.286;10.434;2023-01-31T08:14:51;9.18;;;3.50;;
73557;SDS011;61829;53.286;10.434;2023-01-31T08:17:17;12.95;;;3.65;;
73557;SDS011;61829;53.286;10.434;2023-01-31T08:19:43;16.17;;;2.97;;
73557;SDS011;61829;53.286;10.434;2023-01-31T08:22:11;14.13;;;3.55;;
73557;SDS011;61829;53.286;10.434;2023-01-31T08:24:37;16.23;;;3.90;;
73557;SDS011;61829;53.286;10.434;2023-01-31T08:27:03;16.38;;;3.63;;
73557;SDS011;61829;53.286;10.434;2023-01-31T08:29:29;13.77;;;4.05;;
73557;SDS011;61829;53.286;10.434;2023-01-31T08:31:54;14.20;;;3.85;;
73557;SDS011;61829;53.286;10.434;2023-01-31T08:34:20;14.20;;;4.82;;
73557;SDS011;61829;53.286;10.434;2023-01-31T08:36:47;18.02;;;3.80;;
73557;SDS011;61829;53.286;10.434;2023-01-31T08:39:13;17.55;;;4.45;;
73557;SDS011;61829;53.286;10.434;2023-01-31T08:41:44;11.30;;;3.40;;
73557;SDS011;61829;53.286;10.434;2023-01-31T08:44:13;14.90;;;3.65;;
73557;SDS011;61829;53.286;10.434;2023-01-31T08:46:38;13.65;;;3.83;;
73557;SDS011;61829;53.286;10.434;2023-01-31T08:49:05;14.57;;;4.00;;
73557;SDS011;61829;53.286;10.434;2023-01-31T08:51:31;18.65;;;4.15;;
73557;SDS011;61829;53.286;10.434;2023-01-31T08:54:00;13.82;;;3.70;;
73557;SDS011;61829;53.286;10.434;2023-01-31T08:56:26;9.02;;;3.30;;
73557;SDS011;61829;53.286;10.434;2023-01-31T08:58:52;18.52;;;3.83;;
73557;SDS011;61829;53.286;10.434;2023-01-31T09:01:25;12.65;;;3.65;;
73557;SDS011;61829;53.286;10.434;2023-01-31T09:03:52;15.98;;;4.03;;
73557;SDS011;61829;53.286;10.434;2023-01-31T09:06:21;12.30;;;4.00;;
73557;SDS011;61829;53.286;10.434;2023-01-31T09:08:51;8.98;;;3.47;;
73557;SDS011;61829;53.286;10.434;2023-01-31T09:11:17;20.48;;;4.22;;
73557;SDS011;61829;53.286;10.434;2023-01-31T09:13:47;11.25;;;3.65;;
73557;SDS011;61829;53.286;10.434;2023-01-31T09:16:16;11.52;;;3.42;;
73557;SDS011;61829;53.286;10.434;2023-01-31T09:18:46;10.55;;;3.97;;
73557;SDS011;61829;53.286;10.434;2023-01-31T09:21:13;12.07;;;3.47;;
73557;SDS011;61829;53.286;10.434;2023-01-31T09:23:41;11.45;;;3.78;;
73557;SDS011;61829;53.286;10.434;2023-01-31T09:26:08;14.38;;;3.63;;
73557;SDS011;61829;53.286;10.434;2023-01-31T09:28:35;15.00;;;3.50;;
73557;SDS011;61829;53.286;10.434;2023-01-31T09:31:01;11.88;;;3.58;;
73557;SDS011;61829;53.286;10.434;2023-01-31T09:33:33;12.43;;;3.20;;
73557;SDS011;61829;53.286;10.434;2023-01-31T09:36:00;12.77;;;3.00;;
73557;SDS011;61829;53.286;10.434;2023-01-31T09:38:29;14.30;;;3.10;;
73557;SDS011;61829;53.286;10.434;2023-01-31T09:40:55;12.65;;;3.45;;
73557;SDS011;61829;53.286;10.434;2023-01-31T09:43:24;11.43;;;3.38;;
73557;SDS011;61829;53.286;10.434;2023-01-31T09:45:55;17.25;;;4.25;;
73557;SDS011;61829;53.286;10.434;2023-01-31T09:48:27;17.85;;;3.60;;
73557;SDS011;61829;53.286;10.434;2023-01-31T09:50:59;12.15;;;3.95;;
73557;SDS011;61829;53.286;10.434;2023-01-31T09:53:29;15.05;;;4.80;;
73557;SDS011;61829;53.286;10.434;2023-01-31T10:01:24;13.38;;;3.90;;
73557;SDS011;61829;53.286;10.434;2023-01-31T10:07:00;12.55;;;3.90;;
73557;SDS011;61829;53.286;10.434;2023-01-31T10:09:37;12.52;;;3.90;;
73557;SDS011;61829;53.286;10.434;2023-01-31T10:12:19;12.07;;;4.55;;
73557;SDS011;61829;53.286;10.434;2023-01-31T10:15:13;9.63;;;3.40;;
73557;SDS011;61829;53.286;10.434;2023-01-31T10:17:41;12.02;;;3.67;;
73557;SDS011;61829;53.286;10.434;2023-01-31T10:20:18;9.07;;;3.75;;
73557;SDS011;61829;53.286;10.434;2023-01-31T10:22:57;9.15;;;3.38;;
73557;SDS011;61829;53.286;10.434;2023-01-31T10:25:33;8.70;;;3.15;;
73557;SDS011;61829;53.286;10.434;2023-01-31T10:30:57;7.07;;;3.42;;
73557;SDS011;61829;53.286;10.434;2023-01-31T10:35:54;7.90;;;3.78;;
73557;SDS011;61829;53.286;10.434;2023-01-31T10:38:31;8.88;;;3.72;;
73557;SDS011;61829;53.286;10.434;2023-01-31T10:41:08;9.40;;;4.07;;
73557;SDS011;61829;53.286;10.434;2023-01-31T10:43:46;9.88;;;4.45;;
73557;SDS011;61829;53.286;10.434;2023-01-31T10:46:18;9.68;;;4.70;;
73557;SDS011;61829;53.286;10.434;2023-01-31T10:48:44;6.32;;;4.00;;
73557;SDS011;61829;53.286;10.434;2023-01-31T10:58:52;13.20;;;4.85;;
73557;SDS011;61829;53.286;10.434;2023-01-31T11:01:21;10.20;;;4.90;;
73557;SDS011;61829;53.286;10.434;2023-01-31T11:03:48;10.55;;;5.22;;
73557;SDS011;61829;53.286;10.434;2023-01-31T11:06:18;13.50;;;6.10;;
73557;SDS011;61829;53.286;10.434;2023-01-31T11:08:46;12.82;;;5.97;;
73557;SDS011;61829;53.286;10.434;2023-01-31T11:11:24;9.50;;;5.70;;
73557;SDS011;61829;53.286;10.434;2023-01-31T11:16:42;16.55;;;6.43;;
73557;SDS011;61829;53.286;10.434;2023-01-31T11:19:18;13.35;;;6.15;;
73557;SDS011;61829;53.286;10.434;2023-01-31T11:22:20;12.25;;;6.13;;
73557;SDS011;61829;53.286;10.434;2023-01-31T11:24:49;13.13;;;5.90;;
73557;SDS011;61829;53.286;10.434;2023-01-31T11:27:22;15.07;;;5.65;;
73557;SDS011;61829;53.286;10.434;2023-01-31T11:30:19;12.25;;;5.70;;
73557;SDS011;61829;53.286;10.434;2023-01-31T11:32:47;13.40;;;6.25;;
73557;SDS011;61829;53.286;10.434;2023-01-31T11:37:55;14.05;;;5.72;;
73557;SDS011;61829;53.286;10.434;2023-01-31T11:40:35;12.40;;;5.93;;
73557;SDS011;61829;53.286;10.434;2023-01-31T11:43:21;12.18;;;5.57;;
73557;SDS011;61829;53.286;10.434;2023-01-31T11:46:00;11.63;;;5.75;;
73557;SDS011;61829;53.286;10.434;2023-01-31T11:51:07;13.02;;;5.68;;
73557;SDS011;61829;53.286;10.434;2023-01-31T11:53:53;11.88;;;5.65;;
73557;SDS011;61829;53.286;10.434;2023-01-31T11:56:22;11.30;;;6.57;;
73557;SDS011;61829;53.286;10.434;2023-01-31T11:58:54;10.63;;;6.20;;
73557;SDS011;61829;53.286;10.434;2023-01-31T12:01:23;14.60;;;6.45;;
73557;SDS011;61829;53.286;10.434;2023-01-31T12:03:52;11.07;;;5.78;;
73557;SDS011;61829;53.286;10.434;2023-01-31T12:06:32;10.30;;;6.15;;
73557;SDS011;61829;53.286;10.434;2023-01-31T12:09:01;10.82;;;5.55;;
73557;SDS011;61829;53.286;10.434;2023-01-31T12:11:32;9.18;;;5.30;;
73557;SDS011;61829;53.286;10.434;2023-01-31T12:16:32;11.52;;;5.55;;
73557;SDS011;61829;53.286;10.434;2023-01-31T12:21:54;10.27;;;5.45;;
73557;SDS011;61829;53.286;10.434;2023-01-31T12:24:39;9.75;;;4.78;;
73557;SDS011;61829;53.286;10.434;2023-01-31T12:35:39;8.43;;;3.75;;
73557;SDS011;61829;53.286;10.434;2023-01-31T12:52:36;7.03;;;3.88;;
73557;SDS011;61829;53.286;10.434;2023-01-31T13:03:08;6.10;;;3.28;;
73557;SDS011;61829;53.286;10.434;2023-01-31T13:05:59;9.20;;;3.13;;
73557;SDS011;61829;53.286;10.434;2023-01-31T13:08:32;3.78;;;2.33;;
73557;SDS011;61829;53.286;10.434;2023-01-31T13:13:38;4.93;;;3.10;;
73557;SDS011;61829;53.286;10.434;2023-01-31T13:16:22;8.48;;;3.28;;
73557;SDS011;61829;53.286;10.434;2023-01-31T13:18:55;6.47;;;2.72;;
73557;SDS011;61829;53.286;10.434;2023-01-31T13:21:25;6.65;;;3.20;;
73557;SDS011;61829;53.286;10.434;2023-01-31T13:26:27;4.40;;;2.50;;
73557;SDS011;61829;53.286;10.434;2023-01-31T13:30:02;4.03;;;2.40;;
73557;SDS011;61829;53.286;10.434;2023-01-31T13:32:04;5.78;;;2.90;;
73557;SDS011;61829;53.286;10.434;2023-01-31T13:37:11;4.50;;;2.30;;
73557;SDS011;61829;53.286;10.434;2023-01-31T13:39:53;4.20;;;2.00;;
73557;SDS011;61829;53.286;10.434;2023-01-31T13:42:25;5.47;;;2.42;;
73557;SDS011;61829;53.286;10.434;2023-01-31T13:44:52;3.33;;;2.03;;
73557;SDS011;61829;53.286;10.434;2023-01-31T13:47:31;3.83;;;1.92;;
73557;SDS011;61829;53.286;10.434;2023-01-31T13:50:06;6.95;;;2.67;;
73557;SDS011;61829;53.286;10.434;2023-01-31T13:52:52;4.20;;;2.05;;
73557;SDS011;61829;53.286;10.434;2023-01-31T13:55:26;4.30;;;2.15;;
73557;SDS011;61829;53.286;10.434;2023-01-31T13:58:06;2.40;;;1.73;;
73557;SDS011;61829;53.286;10.434;2023-01-31T14:00:41;3.80;;;1.70;;
73557;SDS011;61829;53.286;10.434;2023-01-31T14:03:11;3.10;;;1.80;;
73557;SDS011;61829;53.286;10.434;2023-01-31T14:10:52;5.15;;;1.88;;
73557;SDS011;61829;53.286;10.434;2023-01-31T14:13:38;3.63;;;1.60;;
73557;SDS011;61829;53.286;10.434;2023-01-31T14:19:58;5.85;;;2.60;;
73557;SDS011;61829;53.286;10.434;2023-01-31T14:57:26;3.17;;;1.58;;
73557;SDS011;61829;53.286;10.434;2023-01-31T15:02:49;2.42;;;1.40;;
73557;SDS011;61829;53.286;10.434;2023-01-31T15:13:36;2.63;;;1.48;;
73557;SDS011;61829;53.286;10.434;2023-01-31T15:16:06;5.20;;;1.50;;
73557;SDS011;61829;53.286;10.434;2023-01-31T15:18:40;4.00;;;1.40;;
73557;SDS011;61829;53.286;10.434;2023-01-31T15:21:07;3.67;;;1.50;;
73557;SDS011;61829;53.286;10.434;2023-01-31T15:23:35;3.00;;;1.50;;
73557;SDS011;61829;53.286;10.434;2023-01-31T15:26:06;3.63;;;1.33;;
73557;SDS011;61829;53.286;10.434;2023-01-31T15:28:36;5.30;;;1.77;;
73557;SDS011;61829;53.286;10.434;2023-01-31T15:31:12;4.97;;;1.73;;
73557;SDS011;61829;53.286;10.434;2023-01-31T15:33:45;5.57;;;1.40;;
73557;SDS011;61829;53.286;10.434;2023-01-31T15:39:22;4.00;;;1.48;;
73557;SDS011;61829;53.286;10.434;2023-01-31T15:41:53;9.20;;;1.67;;
73557;SDS011;61829;53.286;10.434;2023-01-31T15:44:20;7.50;;;1.73;;
73557;SDS011;61829;53.286;10.434;2023-01-31T15:46:48;7.03;;;1.60;;
73557;SDS011;61829;53.286;10.434;2023-01-31T15:49:26;4.63;;;1.30;;
73557;SDS011;61829;53.286;10.434;2023-01-31T15:52:07;4.90;;;2.10;;
73557;SDS011;61829;53.286;10.434;2023-01-31T15:54:34;8.00;;;1.77;;
73557;SDS011;61829;53.286;10.434;2023-01-31T15:57:01;5.00;;;1.63;;
73557;SDS011;61829;53.286;10.434;2023-01-31T15:59:29;3.75;;;1.35;;
73557;SDS011;61829;53.286;10.434;2023-01-31T16:02:00;8.77;;;2.13;;
73557;SDS011;61829;53.286;10.434;2023-01-31T16:04:28;7.28;;;1.80;;
73557;SDS011;61829;53.286;10.434;2023-01-31T16:06:55;8.82;;;2.28;;
73557;SDS011;61829;53.286;10.434;2023-01-31T16:09:22;9.10;;;1.73;;
73557;SDS011;61829;53.286;10.434;2023-01-31T16:11:54;9.18;;;2.00;;
73557;SDS011;61829;53.286;10.434;2023-01-31T16:14:22;10.70;;;1.88;;
73557;SDS011;61829;53.286;10.434;2023-01-31T16:19:29;16.15;;;2.45;;
73557;SDS011;61829;53.286;10.434;2023-01-31T16:21:57;6.90;;;1.70;;
73557;SDS011;61829;53.286;10.434;2023-01-31T16:24:24;9.90;;;1.63;;
73557;SDS011;61829;53.286;10.434;2023-01-31T16:29:40;11.77;;;1.90;;
73557;SDS011;61829;53.286;10.434;2023-01-31T16:32:21;13.15;;;2.00;;
73557;SDS011;61829;53.286;10.434;2023-01-31T16:37:20;9.30;;;1.98;;
73557;SDS011;61829;53.286;10.434;2023-01-31T16:42:42;10.35;;;1.83;;
73557;SDS011;61829;53.286;10.434;2023-01-31T16:47:54;7.00;;;1.67;;
73557;SDS011;61829;53.286;10.434;2023-01-31T16:50:36;14.15;;;2.40;;
73557;SDS011;61829;53.286;10.434;2023-01-31T16:53:44;8.52;;;2.08;;
73557;SDS011;61829;53.286;10.434;2023-01-31T16:56:15;8.30;;;2.13;;
73557;SDS011;61829;53.286;10.434;2023-01-31T17:01:19;10.88;;;2.10;;
73557;SDS011;61829;53.286;10.434;2023-01-31T17:06:35;12.32;;;2.35;;
73557;SDS011;61829;53.286;10.434;2023-01-31T17:09:02;11.10;;;2.22;;
73557;SDS011;61829;53.286;10.434;2023-01-31T17:11:28;10.65;;;1.88;;
73557;SDS011;61829;53.286;10.434;2023-01-31T17:13:54;15.75;;;2.40;;
73557;SDS011;61829;53.286;10.434;2023-01-31T17:16:22;10.82;;;2.00;;
73557;SDS011;61829;53.286;10.434;2023-01-31T17:18:53;10.68;;;2.03;;
73557;SDS011;61829;53.286;10.434;2023-01-31T17:21:20;7.10;;;1.25;;
73557;SDS011;61829;53.286;10.434;2023-01-31T17:23:48;8.50;;;1.50;;
73557;SDS011;61829;53.286;10.434;2023-01-31T17:26:15;8.98;;;1.98;;
73557;SDS011;61829;53.286;10.434;2023-01-31T17:28:43;11.10;;;2.30;;
73557;SDS011;61829;53.286;10.434;2023-01-31T17:31:18;9.18;;;1.83;;
73557;SDS011;61829;53.286;10.434;2023-01-31T17:33:48;7.78;;;2.50;;
73557;SDS011;61829;53.286;10.434;2023-01-31T17:36:15;9.98;;;1.73;;
73557;SDS011;61829;53.286;10.434;2023-01-31T17:38:42;14.02;;;1.98;;
73557;SDS011;61829;53.286;10.434;2023-01-31T17:41:10;10.60;;;2.63;;
73557;SDS011;61829;53.286;10.434;2023-01-31T17:43:38;11.70;;;2.08;;
73557;SDS011;61829;53.286;10.434;2023-01-31T17:46:04;8.88;;;2.35;;
73557;SDS011;61829;53.286;10.434;2023-01-31T17:48:30;10.75;;;2.00;;
73557;SDS011;61829;53.286;10.434;2023-01-31T17:50:56;10.93;;;2.20;;
73557;SDS011;61829;53.286;10.434;2023-01-31T17:53:22;12.52;;;3.10;;
73557;SDS011;61829;53.286;10.434;2023-01-31T17:55:47;8.00;;;1.75;;
73557;SDS011;61829;53.286;10.434;2023-01-31T17:58:14;12.38;;;2.72;;
73557;SDS011;61829;53.286;10.434;2023-01-31T18:00:42;11.45;;;2.90;;
73557;SDS011;61829;53.286;10.434;2023-01-31T18:03:15;11.68;;;1.85;;
73557;SDS011;61829;53.286;10.434;2023-01-31T18:05:42;10.02;;;2.03;;
73557;SDS011;61829;53.286;10.434;2023-01-31T18:08:09;13.50;;;2.75;;
73557;SDS011;61829;53.286;10.434;2023-01-31T18:10:34;11.82;;;2.72;;
73557;SDS011;61829;53.286;10.434;2023-01-31T18:13:00;16.63;;;3.35;;
73557;SDS011;61829;53.286;10.434;2023-01-31T18:15:26;8.90;;;1.88;;
73557;SDS011;61829;53.286;10.434;2023-01-31T18:17:52;14.02;;;2.13;;
73557;SDS011;61829;53.286;10.434;2023-01-31T18:20:17;15.02;;;2.13;;